• Join FlightAware (Why Join?)
  • Login
  • US Flag 
02:09PM EST


 

Airport Tracker/Info


-or-


 

Live Flight TrackerFlight Track Log ✈ N9370U ✈ 26-Jul-2013 ✈ KIPT - KCMH

Flight Track Log - Related Links

Times and Time Zones

All times are in EDT time to prevent confusion due to time zone crossing. See the N9370U flight status page for this flight to view local times or setup timezone preferences in your user account.

Time Position Orientation Groundspeed Altitude Reporting Facility
EDT Latitude Longitude Course Direction KTS MPH feet Rate Location/Type
05:38PM 41.2178 -77.0489 252° West 134 154 3,100  Level New York Center
05:39PM 41.2100 -77.0786 251° West 110 127 3,600 540 Climbing New York Center
05:40PM 41.1801 -77.1431 246° West  Level FlightAware Approximate
05:40PM 41.2022 -77.1108 252° West 97 112 4,200  Level New York Center
05:41PM 41.1656 -77.1865 246° West  Level FlightAware Approximate
05:41PM 41.1922 -77.1403 246° West 92 106 4,800  Level New York Center
05:42PM 41.1511 -77.2299 246° West  Level FlightAware Approximate
05:42PM 41.1842 -77.1753 253° West 92 106 5,400  Level New York Center
05:43PM 41.1500 -77.2772 270° West  Level FlightAware Approximate
05:44PM 41.1679 -77.2291 248° West  Level FlightAware Approximate
05:44PM 41.1700 -77.2403 248° West 92 106 6,700  Level New York Center
05:45PM 41.1661 -77.2758 262° West 97 112 7,400 600 Climbing New York Center
05:46PM 41.1600 -77.3108 257° West 97 112 8,000 300 Climbing New York Center
05:47PM 41.1536 -77.3517 258° West 110 127 8,000  Level New York Center
05:48PM 41.1464 -77.4033 260° West 125 144 8,000  Level New York Center
05:49PM 41.1378 -77.4494 256° West 130 150 8,000  Level New York Center
05:50PM 41.1311 -77.4928 258° West 130 150 8,000  Level New York Center
05:51PM 41.1219 -77.5414 256° West 130 150 8,000  Level New York Center
05:52PM 41.1153 -77.5878 259° West 130 150 8,000  Level New York Center
05:53PM 41.1083 -77.6339 259° West 130 150 8,000  Level New York Center
05:54PM 41.0975 -77.6794 252° West 130 150 8,000  Level New York Center
05:55PM 41.0903 -77.7283 259° West 130 150 8,000  Level New York Center
05:56PM 41.0836 -77.7717 258° West 130 150 8,000  Level New York Center
05:57PM 41.0747 -77.8150 255° West 130 150 8,000  Level New York Center
05:58PM 41.0681 -77.8611 259° West 130 150 8,000  Level New York Center
05:59PM 41.0578 -77.9258 258° West 134 154 8,000  Level Cleveland Center
06:00PM 41.0483 -77.9703 254° West 129 148 8,000  Level Cleveland Center
06:01PM 41.0411 -78.0144 258° West 129 148 8,000  Level Cleveland Center
06:02PM 41.0339 -78.0617 259° West 129 148 8,000  Level Cleveland Center
06:03PM 41.0244 -78.1089 255° West 129 148 8,000  Level Cleveland Center
06:04PM 41.0169 -78.1558 258° West 129 148 8,000  Level Cleveland Center
06:05PM 41.0075 -78.2031 255° West 129 148 8,000  Level Cleveland Center
06:06PM 41.0044 -78.2500 265° West 129 148 8,000  Level Cleveland Center
06:07PM 40.9950 -78.2997 256° West 129 148 8,000  Level Cleveland Center
06:08PM 40.9875 -78.3439 257° West 129 148 8,000  Level Cleveland Center
06:09PM 40.9758 -78.3883 251° West 129 148 8,000  Level Cleveland Center
06:10PM 40.9683 -78.4353 258° West 129 148 8,000  Level Cleveland Center
06:11PM 40.9631 -78.4822 262° West 129 148 8,000  Level Cleveland Center
06:12PM 40.9533 -78.5294 255° West 124 143 8,000  Level Cleveland Center
06:13PM 40.9458 -78.5764 258° West 124 143 8,000  Level Cleveland Center
06:14PM 40.9342 -78.6206 251° West 124 143 8,000  Level Cleveland Center
06:15PM 40.9308 -78.6647 264° West 124 143 8,000  Level Cleveland Center
06:16PM 40.9211 -78.7117 255° West 124 143 8,000  Level Cleveland Center
06:17PM 40.9114 -78.7586 255° West 124 143 8,000  Level Cleveland Center
06:18PM 40.9039 -78.8028 257° West 124 143 8,000  Level Cleveland Center
06:19PM 40.8961 -78.8497 258° West 124 143 8,000  Level Cleveland Center
06:20PM 40.8864 -78.8967 255° West 124 143 8,000  Level Cleveland Center
06:21PM 40.8767 -78.9436 255° West 124 143 8,000  Level Cleveland Center
06:22PM 40.8711 -78.9878 261° West 124 143 8,000  Level Cleveland Center
06:23PM 40.8614 -79.0347 255° West 124 143 8,000  Level Cleveland Center
06:24PM 40.8536 -79.0789 257° West 124 143 8,000  Level Cleveland Center
06:25PM 40.8458 -79.1256 258° West 124 143 8,000  Level Cleveland Center
06:26PM 40.8361 -79.1725 255° West 124 143 8,000  Level Cleveland Center
06:27PM 40.8283 -79.2167 257° West 124 143 8,000  Level Cleveland Center
06:28PM 40.8203 -79.2606 256° West 124 143 8,000  Level Cleveland Center
06:29PM 40.8125 -79.3075 258° West 124 143 8,000  Level Cleveland Center
06:30PM 40.8047 -79.3514 257° West 124 143 8,000  Level Cleveland Center
06:31PM 40.7947 -79.3983 254° West 124 143 8,000  Level Cleveland Center
06:32PM 40.7869 -79.4422 257° West 124 143 8,000  Level Cleveland Center
06:33PM 40.7792 -79.4892 258° West 124 143 8,000  Level Cleveland Center
06:34PM 40.7692 -79.5358 254° West 124 143 8,000  Level Cleveland Center
06:35PM 40.7611 -79.5797 256° West 124 143 8,000  Level Cleveland Center
06:36PM 40.7531 -79.6211 256° West 124 143 8,000  Level Cleveland Center
06:37PM 40.7453 -79.6678 258° West 124 143 8,000  Level Cleveland Center
06:38PM 40.7350 -79.7144 254° West 124 143 8,000  Level Cleveland Center
06:39PM 40.7272 -79.7583 257° West 124 143 8,000  Level Cleveland Center
06:40PM 40.7192 -79.8022 256° West 124 143 8,000  Level Cleveland Center
06:41PM 40.7089 -79.8489 254° West 124 143 8,000  Level Cleveland Center
06:43PM 40.6996 -79.8958 255° West  Level FlightAware Approximate
06:50PM 40.6385 -80.2035 255° West  Level FlightAware Approximate
06:51PM 40.6297 -80.2474 255° West  Level FlightAware Approximate
06:51PM 40.6267 -80.2703 255° West 128 147 8,000  Level Indianapolis Center
06:52PM 40.6208 -80.2913 255° West  Level FlightAware Approximate
06:52PM 40.6175 -80.3153 255° West 128 147 8,000  Level Indianapolis Center
06:53PM 40.6120 -80.3352 255° West  Level FlightAware Approximate
06:53PM 40.6097 -80.3606 257° West 126 145 8,000  Level Indianapolis Center
06:54PM 40.6031 -80.3791 255° West  Level FlightAware Approximate
06:54PM 40.6006 -80.4061 255° West 127 146 8,000  Level Indianapolis Center
06:55PM 40.5943 -80.4229 255° West  Level FlightAware Approximate
06:55PM 40.5919 -80.4497 255° West 125 144 8,000  Level Indianapolis Center
06:56PM 40.5854 -80.4668 255° West  Level FlightAware Approximate
06:56PM 40.5828 -80.4950 255° West 126 145 8,000  Level Indianapolis Center
06:57PM 40.5742 -80.5456 257° West 123 142 8,000  Level Indianapolis Center
06:58PM 40.5664 -80.5903 257° West 123 142 8,000  Level Indianapolis Center
06:59PM 40.5611 -80.6242 258° West 128 147 8,000  Level Cleveland Center
07:00PM 40.5486 -80.6650 248° West 128 147 8,000  Level Cleveland Center
07:01PM 40.5425 -80.7061 259° West 128 147 8,000  Level Cleveland Center
07:02PM 40.5319 -80.7581 255° West 128 147 8,000  Level Cleveland Center
07:03PM 40.5236 -80.8017 256° West 128 147 8,000  Level Cleveland Center
07:04PM 40.5150 -80.8453 255° West 128 147 8,000  Level Cleveland Center
07:05PM 40.5067 -80.8889 256° West 128 147 8,000  Level Cleveland Center
07:06PM 40.4981 -80.9325 255° West 128 147 8,000  Level Cleveland Center
07:07PM 40.4897 -80.9761 256° West 115 132 8,000  Level Cleveland Center
07:08PM 40.4811 -81.0225 256° West 115 132 8,000  Level Cleveland Center
07:09PM 40.4706 -81.0633 251° West 120 138 8,000  Level Cleveland Center
07:10PM 40.4619 -81.1097 256° West 125 144 8,000  Level Cleveland Center
07:11PM 40.4533 -81.1533 255° West 125 144 8,000  Level Cleveland Center
07:12PM 40.4450 -81.1942 255° West 125 144 8,000  Level Cleveland Center
07:13PM 40.4364 -81.2406 256° West 125 144 8,000  Level Cleveland Center
07:14PM 40.4278 -81.2842 255° West 125 144 8,000  Level Cleveland Center
07:15PM 40.4169 -81.3247 251° West 125 144 8,000  Level Cleveland Center
07:16PM 40.4083 -81.3683 255° West 125 144 8,000  Level Cleveland Center
07:17PM 40.3997 -81.4092 255° West 131 151 8,000  Level Cleveland Center
07:18PM 40.3911 -81.4528 255° West 131 151 8,000  Level Cleveland Center
07:20PM 40.3742 -81.5322 254° West 121 139 8,000  Level Indianapolis Center
07:21PM 40.3639 -81.5833 255° West 122 140 8,000  Level Indianapolis Center
07:22PM 40.3556 -81.6272 256° West 123 142 8,000  Level Indianapolis Center
07:23PM 40.3461 -81.6703 254° West 122 140 8,000  Level Indianapolis Center
07:24PM 40.3369 -81.7131 254° West 121 139 8,000  Level Indianapolis Center
07:25PM 40.3278 -81.7572 255° West 123 142 8,000  Level Indianapolis Center
07:26PM 40.3194 -81.8022 256° West 126 145 8,000  Level Indianapolis Center
07:27PM 40.3106 -81.8461 255° West 125 144 8,000  Level Indianapolis Center
07:28PM 40.3003 -81.8872 252° West 119 137 8,000  Level Indianapolis Center
07:29PM 40.2931 -81.9178 253° West 122 140 8,000  Level Indianapolis Center
07:29PM 40.2917 -81.9319 263° West 124 143 8,000  Level Indianapolis Center
07:30PM 40.2839 -81.9739 256° West 121 139 8,000  Level Indianapolis Center
07:31PM 40.2658 -82.0150 240° Southwest 121 139 8,000  Level Indianapolis Center
07:32PM 40.2519 -82.0542 245° Southwest 122 140 8,000  Level Indianapolis Center
07:33PM 40.2358 -82.0928 241° Southwest 122 140 8,000  Level Indianapolis Center
07:34PM 40.2178 -82.1436 245° Southwest 123 142 8,000 -120 Level Indianapolis Center
07:35PM 40.2078 -82.1733 246° West 121 139 7,800 -540 Descending Indianapolis Center
07:36PM 40.1892 -82.2200 242° Southwest 135 155 7,100 -780 Descending Indianapolis Center
07:37PM 40.1706 -82.2636 241° Southwest 135 155 6,300 -600 Descending Indianapolis Center
07:38PM 40.1567 -82.3025 245° Southwest 133 153 6,000 -180 Descending Indianapolis Center
07:39PM 40.1425 -82.3414 245° Southwest 119 137 6,000  Level Indianapolis Center
07:40PM 40.1286 -82.3803 245° Southwest 117 135 6,000  Level Indianapolis Center
07:41PM 40.1167 -82.4194 248° West 117 135 6,000 -300 Level Indianapolis Center
07:42PM 40.1025 -82.4611 246° West 123 142 5,500 -540 Descending Indianapolis Center
07:42PM 40.0964 -82.4825 250° West 128 147 5,200 -720 Descending Indianapolis Center
07:43PM 40.0878 -82.5081 246° West 134 154 4,800 -600 Descending Indianapolis Center
07:43PM 40.0806 -82.5272 244° Southwest 134 154 4,600 -600 Descending Indianapolis Center
07:44PM 40.0672 -82.5486 231° Southwest 131 151 4,200 -600 Descending Indianapolis Center
07:44PM 40.0589 -82.5639 235° Southwest 128 147 4,000 -600 Descending Indianapolis Center
07:45PM 40.0472 -82.5839 233° Southwest 126 145 3,600 -600 Descending Indianapolis Center
07:45PM 40.0389 -82.6017 239° Southwest 127 146 3,400 -420 Descending Indianapolis Center
07:47PM 40.0200 -82.6372 235° Southwest 123 142 3,000 -240 Descending Indianapolis Center
07:48PM 40.0036 -82.6664 234° Southwest 111 128 3,000  Level Indianapolis Center
07:48PM 39.9939 -82.6847 235° Southwest 90 104 3,000  Level Indianapolis Center
07:49PM 39.9836 -82.7267 252° West 116 133 3,000 -300 Level Indianapolis Center
07:50PM 39.9872 -82.7764 275° West 137 158 2,400 -720 Descending Indianapolis Center
07:51PM 39.9906 -82.8097 277° West 114 131 1,700 -720 Descending Indianapolis Center
07:52PM 39.9914 -82.8319 273° West 118 136 1,400 -420 Descending Indianapolis Center
07:53PM 39.9928 -82.8669 273° West 111 128 1,100 -300 Descending Indianapolis Center
07:55PM 39.9833 -82.8833 257° West  Level FlightAware Approximate